createdAt,value
2022-09-15T00:04:25.138Z,96994.69
2022-09-15T00:09:27.587Z,96987.34
2022-09-15T00:14:30.008Z,96975.28
2022-09-15T00:19:32.455Z,96980.63
2022-09-15T00:24:36.036Z,96989.19
2022-09-15T00:29:38.727Z,96972.19
2022-09-15T00:34:41.225Z,96968.41
2022-09-15T00:39:43.879Z,96970.59
2022-09-15T00:44:52.742Z,96977.88
2022-09-15T00:50:02.139Z,96967.31
2022-09-15T00:55:12.384Z,96960.09
2022-09-15T01:00:21.726Z,96962.53
2022-09-15T01:05:30.098Z,96961.81
2022-09-15T01:10:38.045Z,96979.63
2022-09-15T01:16:07.138Z,96966.09
2022-09-15T01:21:12.759Z,96970.38
2022-09-15T01:26:38.580Z,96970.63
2022-09-15T01:32:13.815Z,96952.78
2022-09-15T01:37:28.406Z,96938.78
2022-09-15T01:42:32.815Z,96947.75
2022-09-15T01:47:37.119Z,96946.34
2022-09-15T01:52:44.350Z,96943.88
2022-09-15T01:57:47.015Z,96940.13
2022-09-15T02:03:01.767Z,96944.94
2022-09-15T02:08:25.160Z,96939.44
2022-09-15T02:13:45.286Z,96927.94
2022-09-15T02:19:02.575Z,96937.69
2022-09-15T02:24:14.370Z,96941.97
2022-09-15T02:29:19.732Z,96943.91
2022-09-15T02:34:31.371Z,96943.66
2022-09-15T02:39:37.252Z,96945.66
2022-09-15T02:44:39.662Z,96936.19
2022-09-15T02:49:42.044Z,96926.94
2022-09-15T02:54:44.844Z,96921.41
2022-09-15T03:00:06.168Z,96925.38
2022-09-15T03:05:09.836Z,96921.72
2022-09-15T03:10:14.006Z,96928.25
2022-09-15T03:15:18.773Z,96932.00
2022-09-15T03:20:30.433Z,96931.25
2022-09-15T03:25:33.162Z,96923.53
2022-09-15T03:30:35.580Z,96928.47
2022-09-15T03:35:38.503Z,96932.00
2022-09-15T03:40:43.209Z,96931.50
2022-09-15T03:45:45.736Z,96935.25
2022-09-15T03:50:48.892Z,96922.25
2022-09-15T03:55:51.823Z,96931.53
2022-09-15T04:00:54.467Z,96929.50
2022-09-15T04:05:57.353Z,96935.25
2022-09-15T04:11:03.634Z,96928.75
2022-09-15T04:16:14.723Z,96931.50
2022-09-15T04:21:20.568Z,96930.00
2022-09-15T04:26:31.402Z,96933.00
2022-09-15T04:31:34.459Z,96920.75
2022-09-15T04:36:37.171Z,96922.25
2022-09-15T04:41:39.664Z,96928.00
2022-09-15T04:46:42.179Z,96922.00
2022-09-15T04:51:44.904Z,96923.75
2022-09-15T04:56:47.547Z,96927.25
2022-09-15T05:01:53.554Z,96925.50
2022-09-15T05:06:56.099Z,96936.25
2022-09-15T05:11:58.628Z,96944.00
2022-09-15T05:17:01.117Z,96949.50
2022-09-15T05:22:03.832Z,96954.53
2022-09-15T05:27:06.342Z,96955.53
2022-09-15T05:32:08.995Z,96953.03
2022-09-15T05:37:11.541Z,96950.50
2022-09-15T05:42:14.327Z,96948.25
2022-09-15T05:47:17.096Z,96954.78
2022-09-15T05:52:19.726Z,96958.53
2022-09-15T05:57:22.183Z,96962.78
2022-09-15T06:02:24.677Z,96945.03
2022-09-15T06:07:27.201Z,96956.53
2022-09-15T06:12:29.634Z,96954.50
2022-09-15T06:17:35.181Z,96959.28
2022-09-15T06:22:37.717Z,96956.03
2022-09-15T06:27:41.482Z,96964.28
2022-09-15T06:32:47.903Z,96970.56
2022-09-15T06:37:51.221Z,96980.78
2022-09-15T06:42:57.066Z,96980.03
2022-09-15T06:48:20.601Z,96991.28
2022-09-15T06:53:22.303Z,97007.00
2022-09-15T06:58:24.743Z,97000.28
2022-09-15T07:03:27.266Z,97010.28
2022-09-15T07:08:30.522Z,97010.53
2022-09-15T07:13:32.973Z,97007.53
2022-09-15T07:18:40.944Z,97013.25
2022-09-15T07:23:48.413Z,97010.75
2022-09-15T07:28:54.526Z,97012.47
2022-09-15T07:33:57.455Z,97010.97
2022-09-15T07:38:59.933Z,97018.50
2022-09-15T07:44:02.806Z,97020.97
2022-09-15T07:49:06.583Z,97023.94
2022-09-15T07:54:09.070Z,97028.94
2022-09-15T07:59:11.555Z,97036.16
2022-09-15T08:04:14.119Z,97037.34
2022-09-15T08:09:17.819Z,97044.31
2022-09-15T08:14:20.339Z,97041.06
2022-09-15T08:19:23.000Z,97045.84
2022-09-15T08:24:25.544Z,97058.88
2022-09-15T08:29:28.655Z,97070.41
2022-09-15T08:34:31.373Z,97066.41
2022-09-15T08:39:33.931Z,97055.22
2022-09-15T08:44:57.660Z,97061.25
2022-09-15T08:50:25.130Z,97066.75
2022-09-15T08:55:45.033Z,97080.81
2022-09-15T09:00:51.943Z,97081.88
2022-09-15T09:05:57.167Z,97082.44
2022-09-15T09:11:25.464Z,97085.72
2022-09-15T09:16:50.894Z,97091.47
2022-09-15T09:22:28.389Z,97091.44
2022-09-15T09:27:35.033Z,97087.22
2022-09-15T09:33:15.342Z,97094.72
2022-09-15T09:38:44.179Z,97090.78
2022-09-15T09:43:49.230Z,97097.25
2022-09-15T09:49:18.717Z,97104.28
2022-09-15T09:54:25.140Z,97088.72
2022-09-15T09:59:42.650Z,97097.88
2022-09-15T10:04:50.115Z,97090.34
2022-09-15T10:09:57.320Z,97099.53
2022-09-15T10:15:05.791Z,97112.25
2022-09-15T10:20:32.285Z,97117.44
2022-09-15T10:25:58.122Z,97121.13
2022-09-15T10:31:13.390Z,97128.88
2022-09-15T10:36:21.373Z,97134.22
2022-09-15T10:41:32.111Z,97139.56
2022-09-15T10:46:44.385Z,97141.97
2022-09-15T10:52:19.554Z,97161.06
2022-09-15T10:57:51.833Z,97154.09
2022-09-15T11:03:15.936Z,97170.25
2022-09-15T11:08:33.995Z,97170.25
2022-09-15T11:13:56.574Z,97174.44
2022-09-15T11:19:27.159Z,97184.53
2022-09-15T11:24:56.386Z,97190.75
2022-09-15T11:30:19.051Z,97195.84
2022-09-15T11:35:37.076Z,97200.53
2022-09-15T11:41:06.205Z,97204.56
2022-09-15T11:46:18.891Z,97220.06
2022-09-15T11:51:24.429Z,97229.78
2022-09-15T11:56:45.713Z,97233.88
2022-09-15T12:02:09.241Z,97243.56
2022-09-15T12:07:20.710Z,97245.41
2022-09-15T12:12:26.106Z,97264.88
2022-09-15T12:17:52.766Z,97259.72
2022-09-15T12:23:00.021Z,97254.97
2022-09-15T12:28:24.049Z,97266.22
2022-09-15T12:33:46.831Z,97271.78
2022-09-15T12:38:49.846Z,97281.84
2022-09-15T12:43:57.726Z,97281.31
2022-09-15T12:49:03.249Z,97282.34
2022-09-15T12:54:08.827Z,97283.72
2022-09-15T12:59:15.776Z,97287.28
2022-09-15T13:04:51.919Z,97297.28
2022-09-15T13:10:16.072Z,97294.91
2022-09-15T13:15:20.498Z,97298.19
2022-09-15T13:20:33.801Z,97293.44
2022-09-15T13:25:37.655Z,97294.03
2022-09-15T13:31:02.050Z,97303.25
2022-09-15T13:42:36.482Z,97297.03
2022-09-15T13:48:23.406Z,97291.75
2022-09-15T13:53:32.383Z,97292.03
2022-09-15T14:04:01.469Z,97293.78
2022-09-15T14:09:15.072Z,97296.31
2022-09-15T14:14:54.111Z,97287.97
2022-09-15T14:20:01.658Z,97298.41
2022-09-15T14:25:14.961Z,97301.78
2022-09-15T14:30:31.356Z,97308.81
2022-09-15T14:35:38.072Z,97308.25
2022-09-15T14:40:41.432Z,97305.75
2022-09-15T14:45:55.119Z,97291.66
2022-09-15T14:51:18.829Z,97284.25
2022-09-15T14:56:28.504Z,97291.09
2022-09-15T15:01:40.650Z,97296.75
2022-09-15T15:07:10.574Z,97303.63
2022-09-15T15:12:34.491Z,97300.50
2022-09-15T15:17:49.498Z,97303.97
2022-09-15T15:23:27.934Z,97313.44
2022-09-15T15:28:39.387Z,97306.16
2022-09-15T15:34:05.288Z,97314.47
2022-09-15T15:39:21.023Z,97314.38
2022-09-15T15:44:27.989Z,97309.69
2022-09-15T15:49:32.687Z,97309.66
2022-09-15T15:54:35.598Z,97307.47
2022-09-15T15:59:38.035Z,97314.00
2022-09-15T16:04:40.554Z,97312.84
2022-09-15T16:09:43.438Z,97315.53
2022-09-15T16:14:46.379Z,97313.78
2022-09-15T16:19:48.787Z,97309.75
2022-09-15T16:24:51.191Z,97308.78
2022-09-15T16:29:53.614Z,97321.31
2022-09-15T16:34:56.009Z,97331.13
2022-09-15T16:39:58.534Z,97323.03
2022-09-15T16:45:01.741Z,97326.75
2022-09-15T16:50:04.480Z,97327.16
2022-09-15T16:55:35.888Z,97330.50
2022-09-15T17:00:39.406Z,97336.69
2022-09-15T17:05:48.757Z,97338.31
2022-09-15T17:10:53.034Z,97346.13
2022-09-15T17:15:56.042Z,97348.66
2022-09-15T17:20:59.516Z,97359.47
2022-09-15T17:26:04.801Z,97355.44
2022-09-15T17:31:18.970Z,97358.94
2022-09-15T17:36:21.808Z,97358.06
2022-09-15T17:41:24.276Z,97350.25
2022-09-15T17:46:26.793Z,97349.56
2022-09-15T17:51:29.523Z,97354.59
2022-09-15T17:56:32.422Z,97351.97
2022-09-15T18:01:34.889Z,97347.25
2022-09-15T18:06:37.314Z,97354.91
2022-09-15T18:11:39.754Z,97364.50
2022-09-15T18:16:43.251Z,97366.56
2022-09-15T18:21:51.852Z,97369.97
2022-09-15T18:26:54.505Z,97374.72
2022-09-15T18:31:59.252Z,97387.00
2022-09-15T18:37:02.238Z,97393.66
2022-09-15T18:42:04.851Z,97388.50
2022-09-15T18:47:07.290Z,97397.00
2022-09-15T18:52:09.755Z,97398.06
2022-09-15T18:57:12.252Z,97398.59
2022-09-15T19:02:15.495Z,97403.06
2022-09-15T19:07:18.102Z,97404.13
2022-09-15T19:17:44.514Z,97397.34
2022-09-15T19:22:47.617Z,97405.34
2022-09-15T19:27:50.182Z,97406.75
2022-09-15T19:32:52.844Z,97407.72
2022-09-15T19:37:55.474Z,97406.16
2022-09-15T19:42:57.972Z,97403.13
2022-09-15T19:48:00.493Z,97412.31
2022-09-15T19:53:03.045Z,97416.31
2022-09-15T19:58:05.454Z,97416.91
2022-09-15T20:03:07.954Z,97421.91
2022-09-15T20:08:10.378Z,97421.47
2022-09-15T20:13:13.071Z,97422.59
2022-09-15T20:18:16.420Z,97424.56
2022-09-15T20:23:20.473Z,97427.03
2022-09-15T20:28:23.622Z,97426.22
2022-09-15T20:33:26.482Z,97429.91
2022-09-15T20:38:28.949Z,97425.91
2022-09-15T20:43:31.611Z,97424.91
2022-09-15T20:48:36.432Z,97432.13
2022-09-15T20:53:41.345Z,97428.72
2022-09-15T20:58:44.375Z,97431.91
2022-09-15T21:03:47.913Z,97435.69
2022-09-15T21:08:51.168Z,97429.47
2022-09-15T21:13:54.395Z,97432.09
2022-09-15T21:18:58.595Z,97438.34
2022-09-15T21:24:04.306Z,97440.78
2022-09-15T21:29:06.724Z,97433.69
2022-09-15T21:34:09.634Z,97437.84
2022-09-15T21:39:12.050Z,97449.72
2022-09-15T21:44:14.689Z,97461.78
2022-09-15T21:49:18.320Z,97457.31
2022-09-15T21:54:20.872Z,97452.56
2022-09-15T21:59:23.420Z,97458.59
2022-09-15T22:04:25.933Z,97447.63
2022-09-15T22:09:28.341Z,97447.88
2022-09-15T22:14:31.692Z,97451.56
2022-09-15T22:19:34.132Z,97450.66
2022-09-15T22:24:36.607Z,97456.25
2022-09-15T22:29:39.092Z,97455.56
2022-09-15T22:34:41.717Z,97456.31
2022-09-15T22:39:58.360Z,97462.31
2022-09-15T22:45:05.170Z,97458.66
2022-09-15T22:50:08.179Z,97456.00
2022-09-15T22:55:11.074Z,97455.78
2022-09-15T23:00:15.145Z,97451.63
2022-09-15T23:05:17.760Z,97457.34
2022-09-15T23:10:20.218Z,97453.16
2022-09-15T23:15:22.851Z,97452.97
2022-09-15T23:20:25.241Z,97459.06
2022-09-15T23:25:27.659Z,97456.00
2022-09-15T23:30:30.089Z,97449.22
2022-09-15T23:35:32.506Z,97448.28
2022-09-15T23:40:35.076Z,97448.00
2022-09-15T23:45:37.852Z,97452.88
2022-09-15T23:50:41.741Z,97453.97
2022-09-15T23:55:45.076Z,97449.66
